Clearwater Beach, FL

8:00 AM EDT on August 29, 2014 (GMT -0400)
Good Dog Records | Change Station
CLOSE
Current Station
Personal Weather Station
Location: Clearwater, FL
Elevation: 66 ft
Nearby Weather Stations

Elev 66 ft 27.96 °N, 82.76 °W | Updated 49 seconds ago

Partly Cloudy
Partly Cloudy
79.6 °F
Feels Like 85 °F
N
0.0
Wind Variable Wind from SE
Gusts 0.0 mph

Today
High -- | Low -- °F
--% Chance of Precip.
Yesterday
High -- | Low -- °F
Precip. -- in
7:08 AM 7:55 PM
Waxing Crescent, 14% visible
Pressure 30.02 in
Visibility 10.0 miles
Clouds Few 2700 ft
Few 3200 ft
Scattered Clouds 11000 ft
Heat Index 85 °F
Dew Point 77 °F
Humidity 91%
Rainfall 0.00 in
Snow Depth Not available.
UV 0 out of 12
Pollen 4.00 out of 12
Air Quality Not available.
Flu Activity Not available.
METAR KPIE 291153Z 14006KT 10SM FEW027 FEW032 SCT110 27/25 A3002 RMK AO2 LTG DSNT SW SLP164 T02720250 10272 20261 53014

More Conditions Fewer Conditions

Pressure 30.02 in
Visibility 10.0 miles
Clouds Few 2700 ft
Few 3200 ft
Scattered Clouds 11000 ft
Heat Index 85 °F
Dew Point 77 °F
Humidity 91%
Rainfall 0.00 in
Snow Depth Not available.
UV 0 out of 12
Pollen 4.00 out of 12
Air Quality Not available.
Flu Activity Not available.
METAR KPIE 291153Z 14006KT 10SM FEW027 FEW032 SCT110 27/25 A3002 RMK AO2 LTG DSNT SW SLP164 T02720250 10272 20261 53014

More Conditions Fewer Conditions

10-Day Weather Forecast

Almanac

Astronomy

Aug. 29, 2014 Rise Set
Actual Time 7:08 AM EDT 7:55 PM EDT
Civil Twilight 6:44 AM EDT 8:19 PM EDT
Nautical Twilight 6:16 AM EDT 8:47 PM EDT
Astronomical Twilight 5:47 AM EDT 9:16 PM EDT
Moon 10:34 AM EDT 10:16 PM EDT
Length of Visible Light 13h 34m
Length of Day
12h 47m
Tomorrow will be 1m 34s shorter.
Waxing Crescent, 14% of the Moon is Illuminated
Today
Waxing Crescent
Sep 2
First Quarter
Sep 8
Full
Sep 15
Last Quarter
Sep 24
New

Today's Extremes

State Highs State Lows

Community

WunderPhotos

Upload Photos

1,748,214 photos uploaded!

Nearby

Air Quality

  Air Quality AQ Index Pollutant
Friday Good
PM2.5
Friday Good
OZONE

Snow Depth

Station Depth Elevation
No new snow has been reported.

Earthquake Activity

City Distance Mag. Time & Date
No recent earthquake activity has been reported nearby.
Minimum magnitude displayed is 2.5.

Coastal Water Temperatures

Place Temperature
Clearwater Beach, FL 87.1 °F
Port Manatee, FL 84.0 °F
St Petersburg, FL 88.0 °F
Old Port Tampa, FL 87.1 °F
McKay Bay Entrance, FL 89.1 °F

Nearby Weather Stations